Time;durP1;ratioP1;P1;durP2;ratioP2;P2;SDS_P1;SDS_P2;PMS_P1;PMS_P2;Temp;Humidity;BMP_temperature;BMP_pressure;BME280_temperature;BME280_humidity;BME280_pressure;Samples;Min_cycle;Max_cycle;Signal;HPM_P1;HPM_P2
2023/12/07 00:05:46;;;;;;;154.13;142.52;;;2.90;99.90;;;;;;12465589;28;20054;-78
2023/12/07 00:11:48;;;;;;;159.73;147.68;;;2.80;99.90;;;;;;12417890;28;20061;-77
2023/12/07 00:17:50;;;;;;;162.43;150.20;;;2.80;99.90;;;;;;12479629;28;20046;-78
2023/12/07 00:23:53;;;;;;;162.15;149.88;;;2.60;99.90;;;;;;12487335;28;20050;-77
2023/12/07 00:29:55;;;;;;;164.93;151.95;;;2.70;99.90;;;;;;12390575;28;20419;-77
2023/12/07 00:35:57;;;;;;;161.38;149.25;;;2.70;99.90;;;;;;12415669;28;20050;-78
2023/12/07 00:41:59;;;;;;;165.77;153.27;;;2.70;99.90;;;;;;12488712;28;20053;-78
2023/12/07 00:48:02;;;;;;;160.63;148.13;;;2.80;99.90;;;;;;12541483;28;20489;-78
2023/12/07 00:54:04;;;;;;;164.23;151.55;;;2.80;99.90;;;;;;12404068;28;20141;-77
2023/12/07 01:00:07;;;;;;;164.27;151.70;;;2.80;99.90;;;;;;12415730;28;20054;-78
2023/12/07 01:06:12;;;;;;;167.80;155.13;;;2.70;99.90;;;;;;12472665;28;20051;-78
2023/12/07 01:12:16;;;;;;;166.77;153.82;;;2.80;99.90;;;;;;12414125;28;20103;-78
2023/12/07 01:18:18;;;;;;;170.40;157.00;;;2.80;99.90;;;;;;12417128;28;20046;-78
2023/12/07 01:24:20;;;;;;;166.90;154.00;;;2.70;99.90;;;;;;12419102;28;20061;-79
2023/12/07 01:30:22;;;;;;;166.40;153.60;;;2.70;99.90;;;;;;12493568;28;20046;-78
2023/12/07 01:36:25;;;;;;;164.98;152.10;;;2.80;99.90;;;;;;12433961;28;20139;-77
2023/12/07 01:42:28;;;;;;;164.88;151.93;;;2.70;99.90;;;;;;12496365;28;20056;-78
2023/12/07 01:48:30;;;;;;;163.50;151.13;;;2.70;99.90;;;;;;12503558;28;20045;-78
2023/12/07 01:54:32;;;;;;;166.35;153.60;;;2.70;99.90;;;;;;12480729;28;20052;-78
2023/12/07 02:00:35;;;;;;;164.00;151.27;;;2.70;99.90;;;;;;12532652;28;20050;-78
2023/12/07 02:06:36;;;;;;;164.90;152.30;;;2.70;99.90;;;;;;12434298;28;20385;-78
2023/12/07 02:12:39;;;;;;;161.18;148.90;;;2.60;99.90;;;;;;12432605;28;20061;-78
2023/12/07 02:18:57;;;;;;;159.75;147.45;;;2.70;99.90;;;;;;12469930;28;20514;-78
2023/12/07 02:25:29;;;;;;;160.32;147.75;;;2.60;99.90;;;;;;12420009;28;20503;-78
2023/12/07 02:31:33;;;;;;;156.25;144.15;;;2.60;99.90;;;;;;12408769;28;20057;-78
2023/12/07 02:37:47;;;;;;;160.95;148.18;;;2.60;99.90;;;;;;12414777;28;20042;-77
2023/12/07 02:43:51;;;;;;;160.35;147.73;;;2.50;99.90;;;;;;12450742;28;20108;-78
2023/12/07 02:49:54;;;;;;;167.88;154.82;;;2.50;99.90;;;;;;12503920;28;20061;-77
2023/12/07 02:55:56;;;;;;;165.10;152.43;;;2.40;99.90;;;;;;12487290;28;20050;-78
2023/12/07 03:01:59;;;;;;;163.80;150.77;;;2.50;99.90;;;;;;12525271;28;20062;-78
2023/12/07 03:08:03;;;;;;;166.95;153.07;;;2.40;99.90;;;;;;12518410;28;20187;-77
2023/12/07 03:14:09;;;;;;;161.20;148.23;;;2.40;99.90;;;;;;12503500;28;20498;-76
2023/12/07 03:20:14;;;;;;;155.73;143.23;;;2.30;99.90;;;;;;12502114;28;20048;-77
2023/12/07 03:26:19;;;;;;;162.52;149.45;;;2.40;99.90;;;;;;12428299;28;20057;-78
2023/12/07 03:32:23;;;;;;;160.50;147.80;;;2.30;99.90;;;;;;12480780;28;20082;-78
2023/12/07 03:38:27;;;;;;;158.32;145.48;;;2.30;99.90;;;;;;12485143;28;20076;-81
2023/12/07 03:44:33;;;;;;;159.93;146.88;;;2.30;99.90;;;;;;12483985;28;20576;-78
2023/12/07 03:50:38;;;;;;;159.30;146.63;;;2.30;99.90;;;;;;12465092;28;20137;-78
2023/12/07 03:56:44;;;;;;;154.52;142.20;;;2.20;99.90;;;;;;12489325;28;20058;-78
2023/12/07 04:02:50;;;;;;;156.68;143.75;;;2.30;99.90;;;;;;12481115;28;20129;-78
2023/12/07 04:08:53;;;;;;;146.07;134.23;;;2.20;99.90;;;;;;12433733;28;20095;-77
2023/12/07 04:14:55;;;;;;;141.55;130.20;;;2.20;99.90;;;;;;12481857;28;20061;-77
2023/12/07 04:20:57;;;;;;;152.50;140.25;;;2.40;99.90;;;;;;12420900;28;20062;-77
2023/12/07 04:26:59;;;;;;;145.90;134.27;;;2.40;99.90;;;;;;12484096;28;20113;-77
2023/12/07 04:33:01;;;;;;;144.48;132.80;;;2.30;99.90;;;;;;12488195;28;20056;-77
2023/12/07 04:39:04;;;;;;;143.45;131.30;;;2.30;99.90;;;;;;12502133;28;20056;-77
2023/12/07 04:45:06;;;;;;;140.65;129.07;;;2.20;99.90;;;;;;12488643;28;20061;-78
2023/12/07 04:51:08;;;;;;;138.88;127.53;;;2.20;99.90;;;;;;12419907;28;20077;-78
2023/12/07 04:57:10;;;;;;;133.23;122.40;;;2.20;99.90;;;;;;12438760;28;20087;-78
2023/12/07 05:03:12;;;;;;;133.45;122.35;;;2.20;99.90;;;;;;12493718;28;20062;-78
2023/12/07 05:09:15;;;;;;;128.30;117.30;;;2.20;99.90;;;;;;12499152;28;20170;-78
2023/12/07 05:15:17;;;;;;;125.20;114.47;;;2.20;99.90;;;;;;12537683;28;20045;-78
2023/12/07 05:21:20;;;;;;;128.48;117.30;;;2.30;99.90;;;;;;12422894;28;20496;-78
2023/12/07 05:27:23;;;;;;;117.80;107.75;;;2.20;99.90;;;;;;12411268;28;20042;-78
2023/12/07 05:33:25;;;;;;;125.72;114.63;;;2.20;99.90;;;;;;12506985;28;20131;-78
2023/12/07 05:39:27;;;;;;;139.88;127.20;;;2.20;99.90;;;;;;12432212;28;20042;-78
2023/12/07 05:45:30;;;;;;;137.93;125.72;;;2.20;99.90;;;;;;12418257;28;20072;-78
2023/12/07 05:51:32;;;;;;;139.73;127.68;;;2.10;99.90;;;;;;12501173;28;20054;-78
2023/12/07 05:57:34;;;;;;;138.02;125.47;;;2.10;99.90;;;;;;12513696;28;20091;-79
2023/12/07 06:03:37;;;;;;;136.68;123.97;;;2.10;99.90;;;;;;12505909;28;20042;-78
2023/12/07 06:09:39;;;;;;;135.40;123.13;;;2.00;99.90;;;;;;12496885;28;20058;-79
2023/12/07 06:15:42;;;;;;;136.55;123.63;;;2.00;99.90;;;;;;12476694;28;20046;-79
2023/12/07 06:21:44;;;;;;;137.80;124.80;;;2.00;99.90;;;;;;12484750;28;20065;-79
2023/12/07 06:27:46;;;;;;;128.65;116.45;;;1.90;99.90;;;;;;12469749;28;20046;-78
2023/12/07 06:33:49;;;;;;;126.65;114.55;;;2.00;99.90;;;;;;12487135;28;20058;-78
2023/12/07 06:39:51;;;;;;;129.45;117.25;;;1.90;99.90;;;;;;12502308;28;20066;-78
2023/12/07 06:45:53;;;;;;;132.73;120.80;;;1.90;99.90;;;;;;12417412;28;20465;-78
2023/12/07 06:51:55;;;;;;;132.85;120.75;;;1.80;99.90;;;;;;12516336;28;20065;-78
2023/12/07 06:57:58;;;;;;;134.70;121.93;;;1.90;99.90;;;;;;12488040;28;20073;-78
2023/12/07 07:04:00;;;;;;;134.80;122.22;;;1.80;99.90;;;;;;12482846;28;20065;-78
2023/12/07 07:10:03;;;;;;;132.02;119.43;;;1.80;99.90;;;;;;12477198;28;20423;-78
2023/12/07 07:16:05;;;;;;;130.52;118.10;;;1.80;99.90;;;;;;12479746;28;20035;-78
2023/12/07 07:22:10;;;;;;;132.15;119.47;;;1.80;99.90;;;;;;12472833;28;20047;-79
2023/12/07 07:28:12;;;;;;;140.75;127.28;;;1.80;99.90;;;;;;12424528;28;20050;-78
2023/12/07 07:34:14;;;;;;;141.38;127.97;;;1.80;99.90;;;;;;12494944;28;20050;-78
2023/12/07 07:40:16;;;;;;;142.60;129.32;;;1.90;99.90;;;;;;12401937;28;20561;-79
2023/12/07 07:46:18;;;;;;;146.95;133.40;;;1.90;99.90;;;;;;12488567;28;20058;-78
2023/12/07 07:52:20;;;;;;;146.48;133.07;;;1.90;99.90;;;;;;12552161;28;20054;-78
2023/12/07 07:58:23;;;;;;;147.15;133.20;;;1.90;99.90;;;;;;12501490;28;20105;-79
2023/12/07 08:04:25;;;;;;;153.38;139.65;;;1.90;99.90;;;;;;12414834;28;20046;-78
2023/12/07 08:10:27;;;;;;;163.73;149.20;;;1.90;99.90;;;;;;12477292;28;20499;-78
2023/12/07 08:16:29;;;;;;;157.40;142.75;;;1.90;99.90;;;;;;12474087;28;20203;-78
2023/12/07 08:22:31;;;;;;;155.52;140.48;;;1.90;99.90;;;;;;12485166;28;20053;-80
2023/12/07 08:28:34;;;;;;;151.00;137.02;;;2.00;99.90;;;;;;12438677;28;20136;-78
2023/12/07 08:34:37;;;;;;;150.68;136.65;;;2.00;99.90;;;;;;12404341;28;20054;-78
2023/12/07 08:40:39;;;;;;;155.13;140.25;;;2.00;99.90;;;;;;12542906;28;20188;-78
2023/12/07 08:46:44;;;;;;;152.88;138.10;;;2.00;99.90;;;;;;12455922;28;20127;-82
2023/12/07 08:52:47;;;;;;;150.55;135.60;;;2.10;99.90;;;;;;12483441;28;20423;-79
2023/12/07 08:58:57;;;;;;;154.27;139.15;;;2.20;99.90;;;;;;12490267;28;20051;-79
2023/12/07 09:04:59;;;;;;;153.98;138.85;;;2.20;99.90;;;;;;12493756;28;20069;-78
2023/12/07 09:11:01;;;;;;;153.23;138.48;;;2.30;99.90;;;;;;12616850;28;20146;-80
2023/12/07 09:17:04;;;;;;;162.25;146.70;;;2.40;99.90;;;;;;12613746;28;20044;-79
2023/12/07 09:23:06;;;;;;;160.05;144.77;;;2.30;99.90;;;;;;12624373;28;20119;-79
2023/12/07 09:29:08;;;;;;;158.27;142.68;;;2.40;99.90;;;;;;12623765;28;20044;-78
2023/12/07 09:35:20;;;;;;;156.60;141.20;;;2.40;99.90;;;;;;12630638;28;20052;-79
2023/12/07 09:41:24;;;;;;;157.82;142.65;;;2.50;99.90;;;;;;12622110;28;20486;-79
2023/12/07 09:47:31;;;;;;;160.32;145.13;;;2.50;99.90;;;;;;12617443;28;20054;-77
2023/12/07 09:53:42;;;;;;;161.18;145.60;;;2.60;99.90;;;;;;12608666;28;20048;-78
2023/12/07 09:59:44;;;;;;;159.95;144.43;;;2.60;99.90;;;;;;12646996;28;20052;-79
2023/12/07 10:05:59;;;;;;;153.55;138.82;;;2.70;99.90;;;;;;12630795;28;20056;-79
2023/12/07 10:12:03;;;;;;;151.80;137.75;;;2.70;99.90;;;;;;12437920;28;20419;-80
2023/12/07 10:18:07;;;;;;;158.33;143.80;;;2.80;99.90;;;;;;12424327;28;20057;-78
2023/12/07 10:24:10;;;;;;;154.05;139.48;;;2.90;99.90;;;;;;12505544;28;20049;-77
2023/12/07 10:30:12;;;;;;;155.52;141.43;;;2.90;99.90;;;;;;12492710;28;20049;-78
2023/12/07 10:36:14;;;;;;;161.15;146.20;;;2.90;99.90;;;;;;12491666;28;20046;-78
2023/12/07 10:42:18;;;;;;;165.45;150.20;;;2.90;99.90;;;;;;12485919;28;20132;-77
2023/12/07 10:48:21;;;;;;;158.00;143.53;;;3.00;99.90;;;;;;12485789;28;20193;-79
2023/12/07 10:54:30;;;;;;;160.82;145.50;;;3.20;99.90;;;;;;12445561;28;20060;-77
2023/12/07 11:00:33;;;;;;;153.23;139.27;;;3.20;99.90;;;;;;12423217;28;20050;-77
2023/12/07 11:06:50;;;;;;;149.05;135.50;;;3.20;99.90;;;;;;12490176;28;20054;-79
2023/12/07 11:13:10;;;;;;;148.02;135.00;;;3.20;99.90;;;;;;12430208;28;20067;-78
2023/12/07 11:19:39;;;;;;;144.13;131.82;;;3.20;99.90;;;;;;12511413;28;20054;-78
2023/12/07 11:25:45;;;;;;;141.65;129.68;;;3.30;99.90;;;;;;12492021;28;20058;-77
2023/12/07 11:31:48;;;;;;;122.88;112.88;;;3.50;99.90;;;;;;12523705;28;20054;-77
2023/12/07 11:38:14;;;;;;;118.18;108.47;;;3.90;99.90;;;;;;12596357;28;20157;-77
2023/12/07 11:44:17;;;;;;;110.47;101.18;;;4.20;99.90;;;;;;12514251;28;20411;-77
2023/12/07 11:50:20;;;;;;;113.35;104.45;;;4.50;99.90;;;;;;12489550;28;20050;-77
2023/12/07 11:56:22;;;;;;;116.55;107.25;;;4.60;99.90;;;;;;12491098;28;20581;-78
2023/12/07 12:02:24;;;;;;;103.82;95.68;;;4.60;99.90;;;;;;12517487;28;20046;-79
2023/12/07 12:08:27;;;;;;;87.47;80.95;;;4.70;99.90;;;;;;12482722;28;20038;-79
2023/12/07 12:14:29;;;;;;;112.85;104.25;;;5.40;99.90;;;;;;12530268;28;20049;-78
2023/12/07 12:20:32;;;;;;;102.05;94.00;;;5.10;99.90;;;;;;12504514;28;20052;-79
2023/12/07 12:26:35;;;;;;;110.97;101.78;;;5.10;99.90;;;;;;12547088;28;20880;-79
2023/12/07 12:32:44;;;;;;;102.80;94.60;;;4.70;99.90;;;;;;12503422;28;20458;-78
2023/12/07 12:38:48;;;;;;;104.15;95.82;;;4.60;99.90;;;;;;12506478;28;20115;-78
2023/12/07 12:44:51;;;;;;;103.67;94.97;;;4.60;99.90;;;;;;12511077;28;20058;-78
2023/12/07 12:50:53;;;;;;;93.25;85.95;;;4.40;99.90;;;;;;12521721;28;20054;-78
2023/12/07 12:56:55;;;;;;;94.20;86.88;;;4.90;99.90;;;;;;12500315;28;20498;-78
2023/12/07 13:02:57;;;;;;;98.35;90.63;;;4.80;99.90;;;;;;12502988;28;20057;-78
2023/12/07 13:08:59;;;;;;;99.88;92.13;;;4.50;99.90;;;;;;12492396;28;20058;-80
2023/12/07 13:15:02;;;;;;;106.18;98.43;;;4.50;99.90;;;;;;12490366;28;20042;-79
2023/12/07 13:21:05;;;;;;;105.68;97.78;;;4.50;99.90;;;;;;12485934;28;20168;-78
2023/12/07 13:27:08;;;;;;;110.38;101.78;;;4.70;99.90;;;;;;12509248;28;20050;-78
2023/12/07 13:33:11;;;;;;;112.55;103.68;;;4.30;99.90;;;;;;12538043;28;20476;-78
2023/12/07 13:39:29;;;;;;;122.15;112.45;;;4.00;99.90;;;;;;12431777;28;20051;-78
2023/12/07 13:45:32;;;;;;;;;;;3.90;99.90;;;;;;12491182;28;20523;-76
2023/12/07 13:51:35;;;;;;;112.78;103.40;;;3.80;99.90;;;;;;12507381;28;19995;-76
2023/12/07 13:57:37;;;;;;;121.70;110.90;;;3.80;99.90;;;;;;12426272;28;20052;-77
2023/12/07 14:03:39;;;;;;;115.78;105.78;;;3.70;99.90;;;;;;12460176;28;20491;-77
2023/12/07 14:09:47;;;;;;;120.65;110.18;;;3.70;99.90;;;;;;12514204;28;20514;-78
2023/12/07 14:15:59;;;;;;;122.63;111.88;;;3.60;99.90;;;;;;12495587;28;20084;-78
2023/12/07 14:22:16;;;;;;;117.85;107.22;;;3.50;99.90;;;;;;12515414;28;20080;-78
2023/12/07 14:28:18;;;;;;;123.60;112.93;;;3.40;99.90;;;;;;12504117;28;20046;-78
2023/12/07 14:34:21;;;;;;;131.98;120.50;;;3.20;99.90;;;;;;12440471;28;20046;-78
2023/12/07 14:40:35;;;;;;;136.75;124.78;;;3.10;99.90;;;;;;12492932;28;20109;-78
2023/12/07 14:46:37;;;;;;;132.38;120.90;;;2.90;99.90;;;;;;12507427;28;20057;-78
2023/12/07 14:52:40;;;;;;;133.00;121.53;;;2.80;99.90;;;;;;12507210;28;20054;-78
2023/12/07 14:58:43;;;;;;;133.15;121.57;;;2.60;99.90;;;;;;12496562;28;20042;-79
2023/12/07 15:04:45;;;;;;;128.00;116.80;;;2.50;99.90;;;;;;12547918;28;20054;-78
2023/12/07 15:10:52;;;;;;;128.35;117.05;;;2.30;99.90;;;;;;12448290;28;20057;-79
2023/12/07 15:16:54;;;;;;;126.18;114.50;;;2.10;99.90;;;;;;12483168;28;20132;-79
2023/12/07 15:22:56;;;;;;;112.88;102.35;;;2.00;99.90;;;;;;12429658;28;20483;-79
2023/12/07 15:28:58;;;;;;;111.95;102.00;;;2.10;99.90;;;;;;12491655;28;20046;-79
2023/12/07 15:35:03;;;;;;;110.95;100.70;;;2.00;99.90;;;;;;12508676;28;20393;-79
2023/12/07 15:41:06;;;;;;;104.00;94.20;;;2.00;99.90;;;;;;12424840;28;20131;-79
2023/12/07 15:47:09;;;;;;;108.80;99.65;;;1.90;99.90;;;;;;12497362;28;20054;-80
2023/12/07 15:53:11;;;;;;;105.50;96.07;;;2.10;99.90;;;;;;12518002;28;20066;-79
2023/12/07 15:59:13;;;;;;;102.47;93.57;;;2.10;99.90;;;;;;12501770;28;20046;-80
2023/12/07 16:05:15;;;;;;;105.95;97.00;;;2.00;99.90;;;;;;12510901;28;20061;-80
2023/12/07 16:11:17;;;;;;;100.68;92.28;;;2.00;99.90;;;;;;12496223;28;20058;-81
2023/12/07 16:17:19;;;;;;;100.75;92.15;;;2.00;99.90;;;;;;12502169;28;20042;-80
2023/12/07 16:23:21;;;;;;;101.47;92.85;;;1.90;99.90;;;;;;12506389;28;20065;-80
2023/12/07 16:29:23;;;;;;;92.95;84.63;;;1.90;99.90;;;;;;12517790;28;20157;-80
2023/12/07 16:35:25;;;;;;;94.40;85.85;;;1.90;99.90;;;;;;12485504;28;20050;-80
2023/12/07 16:41:30;;;;;;;88.07;79.78;;;2.00;99.90;;;;;;12498353;28;20053;-79
2023/12/07 16:47:39;;;;;;;92.97;84.38;;;2.00;99.90;;;;;;12481407;28;20042;-80
2023/12/07 16:53:41;;;;;;;96.38;88.22;;;1.90;99.90;;;;;;12463058;28;20050;-79
2023/12/07 16:59:42;;;;;;;94.50;86.30;;;1.90;99.90;;;;;;12520348;28;20041;-80
2023/12/07 17:05:45;;;;;;;95.03;87.00;;;1.70;99.90;;;;;;12516318;28;20050;-80
2023/12/07 17:11:47;;;;;;;95.43;87.55;;;1.70;99.90;;;;;;12550509;28;20061;-79
2023/12/07 17:17:49;;;;;;;94.68;86.93;;;1.60;99.90;;;;;;12452394;28;20046;-79
2023/12/07 17:23:51;;;;;;;94.85;87.28;;;1.40;99.90;;;;;;12440469;28;20057;-78
2023/12/07 17:29:53;;;;;;;93.78;86.30;;;1.40;99.90;;;;;;12520996;28;20057;-79
2023/12/07 17:35:55;;;;;;;88.90;81.72;;;1.40;99.90;;;;;;12451705;28;20046;-79
2023/12/07 17:41:58;;;;;;;91.72;84.50;;;1.30;99.90;;;;;;12519254;28;20104;-80
2023/12/07 17:48:00;;;;;;;89.80;82.80;;;1.30;99.90;;;;;;12464861;28;20103;-81
2023/12/07 17:54:03;;;;;;;91.35;84.25;;;1.30;99.90;;;;;;12481724;28;20042;-80
2023/12/07 18:00:06;;;;;;;90.38;83.18;;;1.40;99.90;;;;;;12423829;28;20050;-82
2023/12/07 18:06:08;;;;;;;95.07;86.88;;;1.30;99.90;;;;;;12517783;28;20137;-81
2023/12/07 18:12:11;;;;;;;93.95;86.25;;;1.30;99.90;;;;;;12505580;28;20073;-80
2023/12/07 18:18:13;;;;;;;104.13;93.68;;;1.40;99.90;;;;;;12450437;28;20045;-81
2023/12/07 18:24:16;;;;;;;96.65;88.25;;;1.40;99.90;;;;;;12488160;28;20046;-80
2023/12/07 18:30:18;;;;;;;94.82;86.60;;;1.40;99.90;;;;;;12453667;28;20049;-79
2023/12/07 18:36:20;;;;;;;96.25;87.97;;;1.40;99.90;;;;;;12428223;28;20042;-81
2023/12/07 18:42:22;;;;;;;92.72;84.95;;;1.30;99.90;;;;;;12420971;28;20130;-80
2023/12/07 18:48:24;;;;;;;90.18;82.57;;;1.30;99.90;;;;;;12478402;28;20051;-80
2023/12/07 18:54:28;;;;;;;90.53;82.90;;;1.30;99.90;;;;;;12494672;28;20050;-80
2023/12/07 19:00:32;;;;;;;91.40;83.93;;;1.30;99.90;;;;;;12444327;28;20064;-80
2023/12/07 19:06:34;;;;;;;90.75;82.95;;;1.30;99.90;;;;;;12498576;28;20058;-80
2023/12/07 19:12:36;;;;;;;89.13;81.57;;;1.30;99.90;;;;;;12504001;28;20047;-80
2023/12/07 19:18:38;;;;;;;89.55;81.78;;;1.30;99.90;;;;;;12494310;28;20053;-80
2023/12/07 19:24:40;;;;;;;90.45;82.38;;;1.30;99.90;;;;;;12468727;28;20054;-80
2023/12/07 19:30:42;;;;;;;89.32;81.93;;;1.30;99.90;;;;;;12504296;28;20086;-80
2023/12/07 19:36:44;;;;;;;87.93;80.32;;;1.30;99.90;;;;;;12482403;28;20046;-82
2023/12/07 19:42:46;;;;;;;89.82;82.13;;;1.30;99.90;;;;;;12432752;28;20043;-81
2023/12/07 19:48:48;;;;;;;90.65;83.18;;;1.30;99.90;;;;;;12539112;28;20056;-81
2023/12/07 19:54:51;;;;;;;92.05;84.35;;;1.30;99.90;;;;;;12455127;28;20090;-80
2023/12/07 20:00:53;;;;;;;89.40;82.13;;;1.30;99.90;;;;;;12497344;28;20049;-79
2023/12/07 20:06:55;;;;;;;91.85;84.20;;;1.40;99.90;;;;;;12484472;28;20086;-80
2023/12/07 20:12:57;;;;;;;95.97;88.03;;;1.40;99.90;;;;;;12437719;28;20062;-80
2023/12/07 20:19:00;;;;;;;93.97;86.57;;;1.40;99.90;;;;;;12515474;28;21059;-80
2023/12/07 20:25:04;;;;;;;95.30;87.78;;;1.30;99.90;;;;;;12488504;28;20049;-80
2023/12/07 20:31:06;;;;;;;100.30;92.20;;;1.40;99.90;;;;;;12503966;28;20100;-80
2023/12/07 20:37:08;;;;;;;95.90;88.18;;;1.30;99.90;;;;;;12534578;28;20110;-81
2023/12/07 20:43:10;;;;;;;96.55;88.78;;;1.40;99.90;;;;;;12509828;28;20046;-80
2023/12/07 20:49:12;;;;;;;96.55;88.65;;;1.40;99.90;;;;;;12539584;28;20050;-81
2023/12/07 20:55:16;;;;;;;97.07;89.47;;;1.40;99.90;;;;;;12538377;28;20054;-81
2023/12/07 21:01:19;;;;;;;94.28;86.85;;;1.30;99.90;;;;;;12491165;28;20061;-80
2023/12/07 21:07:23;;;;;;;100.70;92.90;;;1.40;99.90;;;;;;12420997;28;20092;-81
2023/12/07 21:13:25;;;;;;;97.82;90.22;;;1.30;99.90;;;;;;12491384;28;20086;-80
2023/12/07 21:19:29;;;;;;;102.53;94.22;;;1.30;99.90;;;;;;12429540;28;20057;-80
2023/12/07 21:25:31;;;;;;;101.13;93.20;;;1.20;99.90;;;;;;12505164;28;20096;-79
2023/12/07 21:31:33;;;;;;;101.22;93.13;;;1.30;99.90;;;;;;12496421;28;20402;-82
2023/12/07 21:37:36;;;;;;;103.10;94.97;;;1.20;99.90;;;;;;12492956;28;20043;-80
2023/12/07 21:43:38;;;;;;;96.35;88.25;;;1.20;99.90;;;;;;12484613;28;20050;-81
2023/12/07 21:49:40;;;;;;;97.60;89.80;;;1.20;99.90;;;;;;12494433;28;20058;-80
2023/12/07 21:55:42;;;;;;;96.28;88.13;;;1.20;99.90;;;;;;12498770;28;20058;-81
2023/12/07 22:01:44;;;;;;;96.70;88.93;;;1.10;99.90;;;;;;12453882;28;20129;-81
2023/12/07 22:07:47;;;;;;;99.32;91.13;;;1.00;99.90;;;;;;12474822;28;20073;-79
2023/12/07 22:13:52;;;;;;;97.88;89.75;;;1.00;99.90;;;;;;12505049;28;20076;-79
2023/12/07 22:19:57;;;;;;;98.57;90.75;;;1.00;99.90;;;;;;12436949;28;20065;-79
2023/12/07 22:26:01;;;;;;;99.20;91.00;;;1.00;99.90;;;;;;12499539;28;20057;-79
2023/12/07 22:32:05;;;;;;;96.57;88.53;;;1.00;99.90;;;;;;12533358;28;20057;-78
2023/12/07 22:38:09;;;;;;;102.43;94.50;;;1.00;99.90;;;;;;12517474;28;20046;-78
2023/12/07 22:44:13;;;;;;;100.30;92.50;;;1.00;99.90;;;;;;12447256;28;20495;-80
2023/12/07 22:50:18;;;;;;;101.70;93.70;;;1.00;99.90;;;;;;12453346;28;20050;-82
2023/12/07 22:56:22;;;;;;;103.57;95.38;;;1.00;99.90;;;;;;12494353;28;20072;-80
2023/12/07 23:02:24;;;;;;;101.43;93.57;;;0.90;99.90;;;;;;12458986;28;20061;-81
2023/12/07 23:08:26;;;;;;;101.40;93.45;;;0.80;99.90;;;;;;12531899;28;20062;-82
2023/12/07 23:14:28;;;;;;;106.57;98.28;;;0.80;99.90;;;;;;12542605;28;20109;-79
2023/12/07 23:20:32;;;;;;;103.70;95.60;;;0.80;99.90;;;;;;12552340;28;20053;-80
2023/12/07 23:26:34;;;;;;;104.00;96.10;;;0.70;99.90;;;;;;12534032;28;20058;-78
2023/12/07 23:32:36;;;;;;;105.65;97.57;;;0.70;99.90;;;;;;12543369;28;20072;-81
2023/12/07 23:38:38;;;;;;;106.97;99.18;;;0.80;99.90;;;;;;12525538;28;20124;-81
2023/12/07 23:44:41;;;;;;;107.43;99.82;;;0.80;99.90;;;;;;12456207;28;20103;-79
2023/12/07 23:50:44;;;;;;;107.15;99.35;;;0.70;99.90;;;;;;12556474;28;20058;-79
2023/12/07 23:56:48;;;;;;;111.03;103.10;;;0.80;99.90;;;;;;12440035;28;20060;-79
